Terminal Aerodrome Forecast
Issued by NWS

Home | Current Version | Previous Version | Text Only | Print | Product List | Glossary On
Versions: 1 2 3 4 5 6 7 8 9 10 11 12 13 14 15
000
FTUS45 KABQ 220133 AAA
TAFTCC
TAF AMD
KTCC 220133Z 2202/2224 02015G23KT P6SM BKN050
     FM220400 33011KT P6SM SCT060
     FM221200 28007KT P6SM SKC
     FM221800 30012KT P6SM SKC=

USA.gov is the U.S. government's official web portal to all federal, state and local government web resources and services.